sensor_id;sensor_type;location;lat;lon;timestamp;P1;durP1;ratioP1;P2;durP2;ratioP2
27269;SDS011;14769;56.934;24.176;2023-03-01T00:00:05;17.75;;;2.67;;
27269;SDS011;14769;56.934;24.176;2023-03-01T00:01:09;10.23;;;1.85;;
27269;SDS011;14769;56.934;24.176;2023-03-01T00:02:13;9.55;;;1.95;;
27269;SDS011;14769;56.934;24.176;2023-03-01T00:03:15;9.93;;;1.63;;
27269;SDS011;14769;56.934;24.176;2023-03-01T00:04:17;15.82;;;2.13;;
27269;SDS011;14769;56.934;24.176;2023-03-01T00:05:19;12.18;;;2.03;;
27269;SDS011;14769;56.934;24.176;2023-03-01T00:06:24;12.82;;;1.90;;
27269;SDS011;14769;56.934;24.176;2023-03-01T00:07:27;12.27;;;2.05;;
27269;SDS011;14769;56.934;24.176;2023-03-01T00:08:29;13.80;;;2.15;;
27269;SDS011;14769;56.934;24.176;2023-03-01T00:09:31;9.68;;;1.30;;
27269;SDS011;14769;56.934;24.176;2023-03-01T00:10:33;11.57;;;1.85;;
27269;SDS011;14769;56.934;24.176;2023-03-01T00:11:35;13.73;;;2.45;;
27269;SDS011;14769;56.934;24.176;2023-03-01T00:12:37;14.43;;;1.83;;
27269;SDS011;14769;56.934;24.176;2023-03-01T00:13:39;7.35;;;1.40;;
27269;SDS011;14769;56.934;24.176;2023-03-01T00:14:42;18.92;;;2.55;;
27269;SDS011;14769;56.934;24.176;2023-03-01T00:15:44;10.48;;;1.60;;
27269;SDS011;14769;56.934;24.176;2023-03-01T00:16:46;17.58;;;2.45;;
27269;SDS011;14769;56.934;24.176;2023-03-01T00:17:48;9.32;;;1.63;;
27269;SDS011;14769;56.934;24.176;2023-03-01T00:18:50;15.80;;;2.22;;
27269;SDS011;14769;56.934;24.176;2023-03-01T00:19:52;8.65;;;1.45;;
27269;SDS011;14769;56.934;24.176;2023-03-01T00:20:54;12.77;;;2.22;;
27269;SDS011;14769;56.934;24.176;2023-03-01T00:21:57;13.43;;;2.33;;
27269;SDS011;14769;56.934;24.176;2023-03-01T00:22:59;13.15;;;2.08;;
27269;SDS011;14769;56.934;24.176;2023-03-01T00:24:01;9.80;;;1.42;;
27269;SDS011;14769;56.934;24.176;2023-03-01T00:25:03;9.95;;;1.63;;
27269;SDS011;14769;56.934;24.176;2023-03-01T00:26:07;14.52;;;1.48;;
27269;SDS011;14769;56.934;24.176;2023-03-01T00:27:12;10.75;;;1.45;;
27269;SDS011;14769;56.934;24.176;2023-03-01T00:28:14;10.98;;;1.60;;
27269;SDS011;14769;56.934;24.176;2023-03-01T00:29:17;13.45;;;2.13;;
27269;SDS011;14769;56.934;24.176;2023-03-01T00:30:19;10.05;;;1.70;;
27269;SDS011;14769;56.934;24.176;2023-03-01T00:31:23;11.30;;;1.40;;
27269;SDS011;14769;56.934;24.176;2023-03-01T00:32:26;12.68;;;1.80;;
27269;SDS011;14769;56.934;24.176;2023-03-01T00:33:28;7.82;;;1.58;;
27269;SDS011;14769;56.934;24.176;2023-03-01T00:34:30;11.45;;;1.95;;
27269;SDS011;14769;56.934;24.176;2023-03-01T00:35:32;15.30;;;1.95;;
27269;SDS011;14769;56.934;24.176;2023-03-01T00:36:35;11.32;;;2.05;;
27269;SDS011;14769;56.934;24.176;2023-03-01T00:37:38;13.50;;;1.90;;
27269;SDS011;14769;56.934;24.176;2023-03-01T00:38:42;16.63;;;2.17;;
27269;SDS011;14769;56.934;24.176;2023-03-01T00:39:46;10.10;;;1.85;;
27269;SDS011;14769;56.934;24.176;2023-03-01T00:40:48;13.65;;;1.50;;
27269;SDS011;14769;56.934;24.176;2023-03-01T00:41:50;8.77;;;1.65;;
27269;SDS011;14769;56.934;24.176;2023-03-01T00:42:52;11.60;;;1.80;;
27269;SDS011;14769;56.934;24.176;2023-03-01T00:43:54;13.57;;;1.67;;
27269;SDS011;14769;56.934;24.176;2023-03-01T00:44:58;7.13;;;1.30;;
27269;SDS011;14769;56.934;24.176;2023-03-01T00:46:01;7.90;;;1.52;;
27269;SDS011;14769;56.934;24.176;2023-03-01T00:47:07;13.35;;;2.15;;
27269;SDS011;14769;56.934;24.176;2023-03-01T00:48:09;14.40;;;1.73;;
27269;SDS011;14769;56.934;24.176;2023-03-01T00:49:11;10.80;;;2.28;;
27269;SDS011;14769;56.934;24.176;2023-03-01T00:50:13;15.52;;;2.15;;
27269;SDS011;14769;56.934;24.176;2023-03-01T00:51:26;11.27;;;2.08;;
27269;SDS011;14769;56.934;24.176;2023-03-01T00:52:29;8.48;;;1.33;;
27269;SDS011;14769;56.934;24.176;2023-03-01T00:53:31;9.98;;;1.40;;
27269;SDS011;14769;56.934;24.176;2023-03-01T00:54:33;7.72;;;1.45;;
27269;SDS011;14769;56.934;24.176;2023-03-01T00:55:35;10.10;;;2.15;;
27269;SDS011;14769;56.934;24.176;2023-03-01T00:56:38;11.80;;;2.17;;
27269;SDS011;14769;56.934;24.176;2023-03-01T00:57:40;12.73;;;1.70;;
27269;SDS011;14769;56.934;24.176;2023-03-01T00:58:41;13.07;;;1.80;;
27269;SDS011;14769;56.934;24.176;2023-03-01T00:59:43;11.90;;;1.50;;
27269;SDS011;14769;56.934;24.176;2023-03-01T01:00:45;11.43;;;1.67;;
27269;SDS011;14769;56.934;24.176;2023-03-01T01:01:47;11.23;;;1.65;;
27269;SDS011;14769;56.934;24.176;2023-03-01T01:02:49;19.23;;;3.05;;
27269;SDS011;14769;56.934;24.176;2023-03-01T01:03:52;13.25;;;2.00;;
27269;SDS011;14769;56.934;24.176;2023-03-01T01:04:56;15.90;;;1.67;;
27269;SDS011;14769;56.934;24.176;2023-03-01T01:05:58;16.15;;;1.90;;
27269;SDS011;14769;56.934;24.176;2023-03-01T01:07:06;11.32;;;1.38;;
27269;SDS011;14769;56.934;24.176;2023-03-01T01:08:08;7.22;;;1.50;;
27269;SDS011;14769;56.934;24.176;2023-03-01T01:09:11;10.80;;;1.55;;
27269;SDS011;14769;56.934;24.176;2023-03-01T01:10:18;11.98;;;1.35;;
27269;SDS011;14769;56.934;24.176;2023-03-01T01:11:20;16.35;;;2.22;;
27269;SDS011;14769;56.934;24.176;2023-03-01T01:12:24;13.05;;;2.22;;
27269;SDS011;14769;56.934;24.176;2023-03-01T01:13:26;16.33;;;2.55;;
27269;SDS011;14769;56.934;24.176;2023-03-01T01:14:28;13.00;;;2.20;;
27269;SDS011;14769;56.934;24.176;2023-03-01T01:15:33;16.13;;;2.35;;
27269;SDS011;14769;56.934;24.176;2023-03-01T01:16:36;11.98;;;1.88;;
27269;SDS011;14769;56.934;24.176;2023-03-01T01:17:38;16.25;;;2.03;;
27269;SDS011;14769;56.934;24.176;2023-03-01T01:18:40;14.20;;;2.08;;
27269;SDS011;14769;56.934;24.176;2023-03-01T01:19:42;14.10;;;1.90;;
27269;SDS011;14769;56.934;24.176;2023-03-01T01:20:44;11.52;;;1.73;;
27269;SDS011;14769;56.934;24.176;2023-03-01T01:21:46;14.20;;;1.88;;
27269;SDS011;14769;56.934;24.176;2023-03-01T01:22:49;10.90;;;2.35;;
27269;SDS011;14769;56.934;24.176;2023-03-01T01:23:52;12.80;;;2.47;;
27269;SDS011;14769;56.934;24.176;2023-03-01T01:24:55;14.98;;;2.83;;
27269;SDS011;14769;56.934;24.176;2023-03-01T01:25:57;13.07;;;2.53;;
27269;SDS011;14769;56.934;24.176;2023-03-01T01:27:04;8.82;;;1.70;;
27269;SDS011;14769;56.934;24.176;2023-03-01T01:28:07;14.95;;;1.92;;
27269;SDS011;14769;56.934;24.176;2023-03-01T01:29:09;8.32;;;1.67;;
27269;SDS011;14769;56.934;24.176;2023-03-01T01:30:11;11.63;;;2.25;;
27269;SDS011;14769;56.934;24.176;2023-03-01T01:31:14;12.02;;;1.55;;
27269;SDS011;14769;56.934;24.176;2023-03-01T01:32:16;10.93;;;1.98;;
27269;SDS011;14769;56.934;24.176;2023-03-01T01:33:18;16.40;;;2.75;;
27269;SDS011;14769;56.934;24.176;2023-03-01T01:34:21;9.70;;;1.65;;
27269;SDS011;14769;56.934;24.176;2023-03-01T01:35:23;21.63;;;2.42;;
27269;SDS011;14769;56.934;24.176;2023-03-01T01:36:25;10.15;;;1.70;;
27269;SDS011;14769;56.934;24.176;2023-03-01T01:37:28;7.95;;;1.58;;
27269;SDS011;14769;56.934;24.176;2023-03-01T01:38:32;12.15;;;1.83;;
27269;SDS011;14769;56.934;24.176;2023-03-01T01:39:37;16.98;;;2.05;;
27269;SDS011;14769;56.934;24.176;2023-03-01T01:40:45;10.85;;;1.50;;
27269;SDS011;14769;56.934;24.176;2023-03-01T01:41:48;16.48;;;2.17;;
27269;SDS011;14769;56.934;24.176;2023-03-01T01:42:50;10.10;;;1.85;;
27269;SDS011;14769;56.934;24.176;2023-03-01T01:44:14;15.73;;;1.60;;
27269;SDS011;14769;56.934;24.176;2023-03-01T01:45:33;19.50;;;2.03;;
27269;SDS011;14769;56.934;24.176;2023-03-01T01:46:37;13.95;;;1.75;;
27269;SDS011;14769;56.934;24.176;2023-03-01T01:47:42;14.18;;;2.42;;
27269;SDS011;14769;56.934;24.176;2023-03-01T01:48:48;20.15;;;2.08;;
27269;SDS011;14769;56.934;24.176;2023-03-01T01:49:55;12.68;;;1.90;;
27269;SDS011;14769;56.934;24.176;2023-03-01T01:50:59;11.82;;;2.03;;
27269;SDS011;14769;56.934;24.176;2023-03-01T01:52:07;16.35;;;2.38;;
27269;SDS011;14769;56.934;24.176;2023-03-01T01:53:10;13.15;;;1.70;;
27269;SDS011;14769;56.934;24.176;2023-03-01T01:54:59;17.63;;;2.53;;
27269;SDS011;14769;56.934;24.176;2023-03-01T01:55:46;7.38;;;1.73;;
27269;SDS011;14769;56.934;24.176;2023-03-01T01:56:55;13.15;;;2.33;;
27269;SDS011;14769;56.934;24.176;2023-03-01T01:58:02;13.40;;;1.90;;
27269;SDS011;14769;56.934;24.176;2023-03-01T01:59:09;11.90;;;2.13;;
27269;SDS011;14769;56.934;24.176;2023-03-01T02:00:23;12.70;;;2.05;;
27269;SDS011;14769;56.934;24.176;2023-03-01T02:01:26;9.35;;;2.45;;
27269;SDS011;14769;56.934;24.176;2023-03-01T02:02:28;16.85;;;2.60;;
27269;SDS011;14769;56.934;24.176;2023-03-01T02:03:31;8.10;;;2.58;;
27269;SDS011;14769;56.934;24.176;2023-03-01T02:04:38;19.58;;;4.13;;
27269;SDS011;14769;56.934;24.176;2023-03-01T02:05:49;21.58;;;6.68;;
27269;SDS011;14769;56.934;24.176;2023-03-01T02:07:03;19.25;;;6.63;;
27269;SDS011;14769;56.934;24.176;2023-03-01T02:08:11;17.45;;;7.18;;
27269;SDS011;14769;56.934;24.176;2023-03-01T02:09:14;20.90;;;7.70;;
27269;SDS011;14769;56.934;24.176;2023-03-01T02:10:17;17.73;;;7.05;;
27269;SDS011;14769;56.934;24.176;2023-03-01T02:11:22;17.60;;;6.75;;
27269;SDS011;14769;56.934;24.176;2023-03-01T02:12:24;14.10;;;6.65;;
27269;SDS011;14769;56.934;24.176;2023-03-01T02:13:27;21.70;;;7.38;;
27269;SDS011;14769;56.934;24.176;2023-03-01T02:14:29;13.85;;;6.93;;
27269;SDS011;14769;56.934;24.176;2023-03-01T02:15:32;15.07;;;6.72;;
27269;SDS011;14769;56.934;24.176;2023-03-01T02:16:36;19.60;;;6.47;;
27269;SDS011;14769;56.934;24.176;2023-03-01T02:17:39;18.42;;;6.70;;
27269;SDS011;14769;56.934;24.176;2023-03-01T02:18:41;18.30;;;5.93;;
27269;SDS011;14769;56.934;24.176;2023-03-01T02:21:29;19.40;;;5.72;;
27269;SDS011;14769;56.934;24.176;2023-03-01T02:22:33;12.98;;;5.05;;
27269;SDS011;14769;56.934;24.176;2023-03-01T02:23:37;17.20;;;4.72;;
27269;SDS011;14769;56.934;24.176;2023-03-01T02:24:42;12.85;;;4.15;;
27269;SDS011;14769;56.934;24.176;2023-03-01T02:26:09;17.17;;;4.47;;
27269;SDS011;14769;56.934;24.176;2023-03-01T02:27:49;14.90;;;3.17;;
27269;SDS011;14769;56.934;24.176;2023-03-01T02:29:30;8.02;;;2.85;;
27269;SDS011;14769;56.934;24.176;2023-03-01T02:30:32;14.25;;;2.75;;
27269;SDS011;14769;56.934;24.176;2023-03-01T02:32:45;9.07;;;2.50;;
27269;SDS011;14769;56.934;24.176;2023-03-01T02:33:48;17.88;;;3.33;;
27269;SDS011;14769;56.934;24.176;2023-03-01T02:34:56;11.60;;;2.55;;
27269;SDS011;14769;56.934;24.176;2023-03-01T02:36:03;21.83;;;3.40;;
27269;SDS011;14769;56.934;24.176;2023-03-01T02:37:11;17.73;;;2.75;;
27269;SDS011;14769;56.934;24.176;2023-03-01T02:38:16;14.18;;;2.25;;
27269;SDS011;14769;56.934;24.176;2023-03-01T02:39:20;13.95;;;2.40;;
27269;SDS011;14769;56.934;24.176;2023-03-01T02:40:27;11.50;;;2.10;;
27269;SDS011;14769;56.934;24.176;2023-03-01T02:41:34;21.73;;;2.75;;
27269;SDS011;14769;56.934;24.176;2023-03-01T02:42:41;16.58;;;2.92;;
27269;SDS011;14769;56.934;24.176;2023-03-01T02:43:55;13.18;;;2.10;;
27269;SDS011;14769;56.934;24.176;2023-03-01T02:44:57;11.95;;;2.17;;
27269;SDS011;14769;56.934;24.176;2023-03-01T02:46:02;14.40;;;2.80;;
27269;SDS011;14769;56.934;24.176;2023-03-01T02:47:15;15.45;;;2.15;;
27269;SDS011;14769;56.934;24.176;2023-03-01T02:48:17;9.00;;;2.17;;
27269;SDS011;14769;56.934;24.176;2023-03-01T02:50:46;16.23;;;2.28;;
27269;SDS011;14769;56.934;24.176;2023-03-01T02:53:39;11.63;;;1.80;;
27269;SDS011;14769;56.934;24.176;2023-03-01T02:55:06;15.13;;;1.98;;
27269;SDS011;14769;56.934;24.176;2023-03-01T02:56:11;11.38;;;1.73;;
27269;SDS011;14769;56.934;24.176;2023-03-01T02:57:14;17.95;;;2.45;;
27269;SDS011;14769;56.934;24.176;2023-03-01T02:58:16;15.70;;;2.13;;
27269;SDS011;14769;56.934;24.176;2023-03-01T02:59:22;11.95;;;2.03;;
27269;SDS011;14769;56.934;24.176;2023-03-01T03:00:28;19.85;;;2.35;;
27269;SDS011;14769;56.934;24.176;2023-03-01T03:01:41;14.55;;;2.13;;
27269;SDS011;14769;56.934;24.176;2023-03-01T03:02:43;17.55;;;2.20;;
27269;SDS011;14769;56.934;24.176;2023-03-01T03:03:45;12.13;;;1.67;;
27269;SDS011;14769;56.934;24.176;2023-03-01T03:04:47;15.25;;;2.10;;
27269;SDS011;14769;56.934;24.176;2023-03-01T03:05:49;14.60;;;2.00;;
27269;SDS011;14769;56.934;24.176;2023-03-01T03:06:51;15.23;;;1.90;;
27269;SDS011;14769;56.934;24.176;2023-03-01T03:07:53;12.50;;;1.83;;
27269;SDS011;14769;56.934;24.176;2023-03-01T03:08:56;20.92;;;2.50;;
27269;SDS011;14769;56.934;24.176;2023-03-01T03:09:58;15.02;;;2.67;;
27269;SDS011;14769;56.934;24.176;2023-03-01T03:11:01;10.30;;;2.13;;
27269;SDS011;14769;56.934;24.176;2023-03-01T03:12:03;13.13;;;2.15;;
27269;SDS011;14769;56.934;24.176;2023-03-01T03:13:06;9.93;;;1.88;;
27269;SDS011;14769;56.934;24.176;2023-03-01T03:14:13;11.27;;;2.17;;
27269;SDS011;14769;56.934;24.176;2023-03-01T03:15:17;12.88;;;2.20;;
27269;SDS011;14769;56.934;24.176;2023-03-01T03:16:20;12.48;;;2.00;;
27269;SDS011;14769;56.934;24.176;2023-03-01T03:17:22;14.63;;;2.55;;
27269;SDS011;14769;56.934;24.176;2023-03-01T03:18:24;13.02;;;1.80;;
27269;SDS011;14769;56.934;24.176;2023-03-01T03:19:30;14.25;;;1.75;;
27269;SDS011;14769;56.934;24.176;2023-03-01T03:20:32;12.70;;;1.92;;
27269;SDS011;14769;56.934;24.176;2023-03-01T03:21:35;17.35;;;2.13;;
27269;SDS011;14769;56.934;24.176;2023-03-01T03:22:38;11.57;;;2.25;;
27269;SDS011;14769;56.934;24.176;2023-03-01T03:23:41;15.38;;;2.45;;
27269;SDS011;14769;56.934;24.176;2023-03-01T03:24:43;16.08;;;2.40;;
27269;SDS011;14769;56.934;24.176;2023-03-01T03:25:47;13.98;;;2.00;;
27269;SDS011;14769;56.934;24.176;2023-03-01T03:26:50;18.23;;;2.38;;
27269;SDS011;14769;56.934;24.176;2023-03-01T03:27:52;21.27;;;3.03;;
27269;SDS011;14769;56.934;24.176;2023-03-01T03:28:58;14.48;;;2.53;;
27269;SDS011;14769;56.934;24.176;2023-03-01T03:30:00;11.13;;;2.10;;
27269;SDS011;14769;56.934;24.176;2023-03-01T03:31:02;14.13;;;1.73;;
27269;SDS011;14769;56.934;24.176;2023-03-01T03:32:07;11.65;;;2.40;;
27269;SDS011;14769;56.934;24.176;2023-03-01T03:33:11;12.75;;;2.05;;
27269;SDS011;14769;56.934;24.176;2023-03-01T03:34:14;12.80;;;2.70;;
27269;SDS011;14769;56.934;24.176;2023-03-01T03:35:21;10.40;;;1.90;;
27269;SDS011;14769;56.934;24.176;2023-03-01T03:36:25;17.73;;;2.50;;
27269;SDS011;14769;56.934;24.176;2023-03-01T03:37:27;11.98;;;2.42;;
27269;SDS011;14769;56.934;24.176;2023-03-01T03:38:48;15.20;;;2.83;;
27269;SDS011;14769;56.934;24.176;2023-03-01T03:39:50;11.55;;;2.88;;
27269;SDS011;14769;56.934;24.176;2023-03-01T03:41:00;19.33;;;4.10;;
27269;SDS011;14769;56.934;24.176;2023-03-01T03:42:04;18.65;;;3.55;;
27269;SDS011;14769;56.934;24.176;2023-03-01T03:43:06;16.98;;;3.42;;
27269;SDS011;14769;56.934;24.176;2023-03-01T03:44:10;17.40;;;3.38;;
27269;SDS011;14769;56.934;24.176;2023-03-01T03:45:12;14.77;;;3.40;;
27269;SDS011;14769;56.934;24.176;2023-03-01T03:46:14;13.75;;;3.53;;
27269;SDS011;14769;56.934;24.176;2023-03-01T03:47:16;13.05;;;2.88;;
27269;SDS011;14769;56.934;24.176;2023-03-01T03:48:18;21.88;;;3.65;;
27269;SDS011;14769;56.934;24.176;2023-03-01T03:49:20;16.52;;;2.78;;
27269;SDS011;14769;56.934;24.176;2023-03-01T03:50:22;14.50;;;2.63;;
27269;SDS011;14769;56.934;24.176;2023-03-01T03:51:24;12.75;;;2.20;;
27269;SDS011;14769;56.934;24.176;2023-03-01T03:52:26;16.05;;;2.30;;
27269;SDS011;14769;56.934;24.176;2023-03-01T03:53:28;11.23;;;2.00;;
27269;SDS011;14769;56.934;24.176;2023-03-01T03:54:31;10.10;;;2.00;;
27269;SDS011;14769;56.934;24.176;2023-03-01T03:55:33;16.33;;;2.22;;
27269;SDS011;14769;56.934;24.176;2023-03-01T03:56:35;12.25;;;1.92;;
27269;SDS011;14769;56.934;24.176;2023-03-01T03:57:38;16.55;;;2.92;;
27269;SDS011;14769;56.934;24.176;2023-03-01T03:58:42;14.52;;;2.60;;
27269;SDS011;14769;56.934;24.176;2023-03-01T03:59:44;15.90;;;2.50;;
27269;SDS011;14769;56.934;24.176;2023-03-01T04:00:51;9.27;;;1.77;;
27269;SDS011;14769;56.934;24.176;2023-03-01T04:01:54;13.43;;;2.25;;
27269;SDS011;14769;56.934;24.176;2023-03-01T04:02:57;11.95;;;2.60;;
27269;SDS011;14769;56.934;24.176;2023-03-01T04:03:58;11.35;;;2.13;;
27269;SDS011;14769;56.934;24.176;2023-03-01T04:05:06;13.40;;;2.00;;
27269;SDS011;14769;56.934;24.176;2023-03-01T04:06:09;16.80;;;1.95;;
27269;SDS011;14769;56.934;24.176;2023-03-01T04:07:11;12.80;;;2.20;;
27269;SDS011;14769;56.934;24.176;2023-03-01T04:08:13;16.85;;;1.67;;
27269;SDS011;14769;56.934;24.176;2023-03-01T04:09:16;13.00;;;2.13;;
27269;SDS011;14769;56.934;24.176;2023-03-01T04:10:18;12.77;;;2.08;;
27269;SDS011;14769;56.934;24.176;2023-03-01T04:11:20;14.10;;;2.33;;
27269;SDS011;14769;56.934;24.176;2023-03-01T04:12:27;19.25;;;2.85;;
27269;SDS011;14769;56.934;24.176;2023-03-01T04:13:29;13.93;;;2.13;;
27269;SDS011;14769;56.934;24.176;2023-03-01T04:14:31;11.07;;;1.98;;
27269;SDS011;14769;56.934;24.176;2023-03-01T04:15:34;12.43;;;2.30;;
27269;SDS011;14769;56.934;24.176;2023-03-01T04:16:37;9.77;;;1.80;;
27269;SDS011;14769;56.934;24.176;2023-03-01T04:17:39;12.05;;;2.00;;
27269;SDS011;14769;56.934;24.176;2023-03-01T04:18:42;11.07;;;1.73;;
27269;SDS011;14769;56.934;24.176;2023-03-01T04:19:45;17.52;;;2.30;;
27269;SDS011;14769;56.934;24.176;2023-03-01T04:20:50;8.63;;;2.17;;
27269;SDS011;14769;56.934;24.176;2023-03-01T04:21:53;12.07;;;1.65;;
27269;SDS011;14769;56.934;24.176;2023-03-01T04:22:59;15.32;;;2.15;;
27269;SDS011;14769;56.934;24.176;2023-03-01T04:24:12;11.82;;;1.75;;
27269;SDS011;14769;56.934;24.176;2023-03-01T04:25:14;15.75;;;2.80;;
27269;SDS011;14769;56.934;24.176;2023-03-01T04:26:16;13.23;;;2.33;;
27269;SDS011;14769;56.934;24.176;2023-03-01T04:27:20;16.60;;;1.98;;
27269;SDS011;14769;56.934;24.176;2023-03-01T04:28:26;14.93;;;2.03;;
27269;SDS011;14769;56.934;24.176;2023-03-01T04:29:33;13.52;;;1.80;;
27269;SDS011;14769;56.934;24.176;2023-03-01T04:30:36;13.18;;;2.22;;
27269;SDS011;14769;56.934;24.176;2023-03-01T04:31:39;15.00;;;2.08;;
27269;SDS011;14769;56.934;24.176;2023-03-01T04:32:41;13.95;;;2.50;;
27269;SDS011;14769;56.934;24.176;2023-03-01T04:34:55;12.35;;;1.85;;
27269;SDS011;14769;56.934;24.176;2023-03-01T04:35:57;15.20;;;2.38;;
27269;SDS011;14769;56.934;24.176;2023-03-01T04:36:59;11.00;;;1.85;;
27269;SDS011;14769;56.934;24.176;2023-03-01T04:38:01;11.35;;;2.00;;
27269;SDS011;14769;56.934;24.176;2023-03-01T04:39:03;15.68;;;2.00;;
27269;SDS011;14769;56.934;24.176;2023-03-01T04:40:13;11.30;;;2.13;;
27269;SDS011;14769;56.934;24.176;2023-03-01T04:41:19;18.88;;;2.30;;
27269;SDS011;14769;56.934;24.176;2023-03-01T04:42:22;16.67;;;2.45;;
27269;SDS011;14769;56.934;24.176;2023-03-01T04:43:24;15.82;;;2.65;;
27269;SDS011;14769;56.934;24.176;2023-03-01T04:44:26;11.90;;;2.10;;
27269;SDS011;14769;56.934;24.176;2023-03-01T04:45:28;10.50;;;2.05;;
27269;SDS011;14769;56.934;24.176;2023-03-01T04:46:30;15.48;;;2.50;;
27269;SDS011;14769;56.934;24.176;2023-03-01T04:47:32;11.77;;;2.40;;
27269;SDS011;14769;56.934;24.176;2023-03-01T04:48:35;13.95;;;1.88;;
27269;SDS011;14769;56.934;24.176;2023-03-01T04:49:38;8.50;;;1.80;;
27269;SDS011;14769;56.934;24.176;2023-03-01T04:50:40;19.73;;;3.17;;
27269;SDS011;14769;56.934;24.176;2023-03-01T04:51:42;17.15;;;2.63;;
27269;SDS011;14769;56.934;24.176;2023-03-01T04:52:44;10.90;;;2.50;;
27269;SDS011;14769;56.934;24.176;2023-03-01T04:53:47;11.63;;;2.03;;
27269;SDS011;14769;56.934;24.176;2023-03-01T04:54:49;16.85;;;2.75;;
27269;SDS011;14769;56.934;24.176;2023-03-01T04:55:51;10.82;;;1.80;;
27269;SDS011;14769;56.934;24.176;2023-03-01T04:56:53;8.23;;;1.90;;
27269;SDS011;14769;56.934;24.176;2023-03-01T04:57:56;13.23;;;2.15;;
27269;SDS011;14769;56.934;24.176;2023-03-01T04:58:58;13.15;;;2.17;;
27269;SDS011;14769;56.934;24.176;2023-03-01T05:00:02;12.63;;;2.08;;
27269;SDS011;14769;56.934;24.176;2023-03-01T05:01:21;8.73;;;2.40;;
27269;SDS011;14769;56.934;24.176;2023-03-01T05:02:23;9.38;;;1.90;;
27269;SDS011;14769;56.934;24.176;2023-03-01T05:03:25;13.43;;;2.15;;
27269;SDS011;14769;56.934;24.176;2023-03-01T05:04:27;12.95;;;2.85;;
27269;SDS011;14769;56.934;24.176;2023-03-01T05:05:33;11.88;;;2.58;;
27269;SDS011;14769;56.934;24.176;2023-03-01T05:06:37;10.20;;;2.60;;
27269;SDS011;14769;56.934;24.176;2023-03-01T05:07:39;12.10;;;2.33;;
27269;SDS011;14769;56.934;24.176;2023-03-01T05:08:42;8.10;;;1.88;;
27269;SDS011;14769;56.934;24.176;2023-03-01T05:09:45;15.70;;;1.98;;
27269;SDS011;14769;56.934;24.176;2023-03-01T05:10:49;15.00;;;2.60;;
27269;SDS011;14769;56.934;24.176;2023-03-01T05:11:52;11.57;;;2.63;;
27269;SDS011;14769;56.934;24.176;2023-03-01T05:12:55;11.73;;;2.30;;
27269;SDS011;14769;56.934;24.176;2023-03-01T05:13:58;11.15;;;2.42;;
27269;SDS011;14769;56.934;24.176;2023-03-01T05:15:00;10.50;;;2.35;;
27269;SDS011;14769;56.934;24.176;2023-03-01T05:16:08;10.48;;;2.20;;
27269;SDS011;14769;56.934;24.176;2023-03-01T05:17:13;13.43;;;2.25;;
27269;SDS011;14769;56.934;24.176;2023-03-01T05:18:15;9.07;;;2.00;;
27269;SDS011;14769;56.934;24.176;2023-03-01T05:19:17;10.27;;;2.30;;
27269;SDS011;14769;56.934;24.176;2023-03-01T05:20:24;14.07;;;1.98;;
27269;SDS011;14769;56.934;24.176;2023-03-01T05:21:27;18.25;;;2.22;;
27269;SDS011;14769;56.934;24.176;2023-03-01T05:22:29;12.98;;;2.42;;
27269;SDS011;14769;56.934;24.176;2023-03-01T05:23:31;13.85;;;1.80;;
27269;SDS011;14769;56.934;24.176;2023-03-01T05:24:34;12.25;;;1.80;;
27269;SDS011;14769;56.934;24.176;2023-03-01T05:25:36;18.67;;;2.22;;
27269;SDS011;14769;56.934;24.176;2023-03-01T05:26:41;7.95;;;1.90;;
27269;SDS011;14769;56.934;24.176;2023-03-01T05:27:43;14.43;;;2.30;;
27269;SDS011;14769;56.934;24.176;2023-03-01T05:28:45;13.27;;;1.75;;
27269;SDS011;14769;56.934;24.176;2023-03-01T05:29:47;11.93;;;2.03;;
27269;SDS011;14769;56.934;24.176;2023-03-01T05:30:49;8.73;;;1.63;;
27269;SDS011;14769;56.934;24.176;2023-03-01T05:31:54;13.85;;;2.55;;
27269;SDS011;14769;56.934;24.176;2023-03-01T05:32:59;10.82;;;2.55;;
27269;SDS011;14769;56.934;24.176;2023-03-01T05:34:02;8.68;;;1.90;;
27269;SDS011;14769;56.934;24.176;2023-03-01T05:35:04;9.90;;;1.73;;
27269;SDS011;14769;56.934;24.176;2023-03-01T05:36:07;11.07;;;2.15;;
27269;SDS011;14769;56.934;24.176;2023-03-01T05:37:10;10.98;;;1.58;;
27269;SDS011;14769;56.934;24.176;2023-03-01T05:38:13;13.93;;;2.50;;
27269;SDS011;14769;56.934;24.176;2023-03-01T05:39:15;12.63;;;2.00;;
27269;SDS011;14769;56.934;24.176;2023-03-01T05:40:18;14.50;;;2.72;;
27269;SDS011;14769;56.934;24.176;2023-03-01T05:41:21;11.57;;;2.20;;
27269;SDS011;14769;56.934;24.176;2023-03-01T05:42:23;12.77;;;2.03;;
27269;SDS011;14769;56.934;24.176;2023-03-01T05:43:25;14.05;;;2.13;;
27269;SDS011;14769;56.934;24.176;2023-03-01T05:44:27;12.45;;;1.88;;
27269;SDS011;14769;56.934;24.176;2023-03-01T05:45:30;12.60;;;2.40;;
27269;SDS011;14769;56.934;24.176;2023-03-01T05:46:33;11.57;;;2.03;;
27269;SDS011;14769;56.934;24.176;2023-03-01T05:47:35;17.92;;;2.15;;
27269;SDS011;14769;56.934;24.176;2023-03-01T05:48:37;14.05;;;2.67;;
27269;SDS011;14769;56.934;24.176;2023-03-01T05:49:40;8.13;;;1.60;;
27269;SDS011;14769;56.934;24.176;2023-03-01T05:50:42;14.85;;;2.53;;
27269;SDS011;14769;56.934;24.176;2023-03-01T05:51:49;18.20;;;2.35;;
27269;SDS011;14769;56.934;24.176;2023-03-01T05:52:57;10.77;;;2.10;;
27269;SDS011;14769;56.934;24.176;2023-03-01T05:54:01;13.82;;;2.05;;
27269;SDS011;14769;56.934;24.176;2023-03-01T05:55:03;14.88;;;2.80;;
27269;SDS011;14769;56.934;24.176;2023-03-01T05:56:05;11.43;;;3.10;;
27269;SDS011;14769;56.934;24.176;2023-03-01T05:57:07;11.20;;;2.28;;
27269;SDS011;14769;56.934;24.176;2023-03-01T05:58:10;8.43;;;2.08;;
27269;SDS011;14769;56.934;24.176;2023-03-01T05:59:15;10.57;;;2.10;;
27269;SDS011;14769;56.934;24.176;2023-03-01T06:00:18;13.02;;;1.85;;
27269;SDS011;14769;56.934;24.176;2023-03-01T06:01:23;11.25;;;2.85;;
27269;SDS011;14769;56.934;24.176;2023-03-01T06:02:25;7.35;;;1.90;;
27269;SDS011;14769;56.934;24.176;2023-03-01T06:03:28;13.07;;;2.28;;
27269;SDS011;14769;56.934;24.176;2023-03-01T06:04:30;12.05;;;2.08;;
27269;SDS011;14769;56.934;24.176;2023-03-01T06:05:32;15.88;;;2.47;;
27269;SDS011;14769;56.934;24.176;2023-03-01T06:06:34;9.95;;;2.22;;
27269;SDS011;14769;56.934;24.176;2023-03-01T06:07:40;14.05;;;2.55;;
27269;SDS011;14769;56.934;24.176;2023-03-01T06:08:43;10.50;;;2.50;;
27269;SDS011;14769;56.934;24.176;2023-03-01T06:09:45;10.48;;;2.17;;
27269;SDS011;14769;56.934;24.176;2023-03-01T06:10:47;12.05;;;2.10;;
27269;SDS011;14769;56.934;24.176;2023-03-01T06:11:49;12.75;;;2.30;;
27269;SDS011;14769;56.934;24.176;2023-03-01T06:12:51;17.05;;;2.53;;
27269;SDS011;14769;56.934;24.176;2023-03-01T06:13:53;18.40;;;3.17;;
27269;SDS011;14769;56.934;24.176;2023-03-01T06:14:55;10.70;;;1.92;;
27269;SDS011;14769;56.934;24.176;2023-03-01T06:15:59;16.42;;;2.45;;
27269;SDS011;14769;56.934;24.176;2023-03-01T06:17:01;10.07;;;2.20;;
27269;SDS011;14769;56.934;24.176;2023-03-01T06:18:03;13.45;;;2.80;;
27269;SDS011;14769;56.934;24.176;2023-03-01T06:19:05;13.48;;;2.72;;
27269;SDS011;14769;56.934;24.176;2023-03-01T06:20:08;12.15;;;2.40;;
27269;SDS011;14769;56.934;24.176;2023-03-01T06:21:15;15.48;;;2.72;;
27269;SDS011;14769;56.934;24.176;2023-03-01T06:22:17;18.65;;;2.90;;